sensor_id;sensor_type;location;lat;lon;timestamp;pressure;altitude;pressure_sealevel;temperature;humidity
14253;BME280;7210;51.502;10.722;2023-01-25T00:02:10;101721.13;;;1.41;100.00
14253;BME280;7210;51.502;10.722;2023-01-25T00:04:37;101723.84;;;1.40;100.00
14253;BME280;7210;51.502;10.722;2023-01-25T00:07:04;101721.25;;;1.40;100.00
14253;BME280;7210;51.502;10.722;2023-01-25T00:09:35;101725.50;;;1.41;100.00
14253;BME280;7210;51.502;10.722;2023-01-25T00:12:03;101722.66;;;1.33;100.00
14253;BME280;7210;51.502;10.722;2023-01-25T00:14:30;101717.66;;;1.30;100.00
14253;BME280;7210;51.502;10.722;2023-01-25T00:16:58;101727.25;;;1.29;100.00
14253;BME280;7210;51.502;10.722;2023-01-25T00:19:25;101724.06;;;1.26;100.00
14253;BME280;7210;51.502;10.722;2023-01-25T00:21:52;101719.56;;;1.28;100.00
14253;BME280;7210;51.502;10.722;2023-01-25T00:24:19;101720.16;;;1.31;100.00
14253;BME280;7210;51.502;10.722;2023-01-25T00:26:53;101723.47;;;1.33;100.00
14253;BME280;7210;51.502;10.722;2023-01-25T00:29:21;101710.56;;;1.32;100.00
14253;BME280;7210;51.502;10.722;2023-01-25T00:32:28;101715.53;;;1.35;100.00
14253;BME280;7210;51.502;10.722;2023-01-25T00:34:58;101712.00;;;1.36;100.00
14253;BME280;7210;51.502;10.722;2023-01-25T00:37:34;101703.31;;;1.35;100.00
14253;BME280;7210;51.502;10.722;2023-01-25T00:40:02;101699.06;;;1.34;100.00
14253;BME280;7210;51.502;10.722;2023-01-25T00:42:31;101704.28;;;1.34;100.00
14253;BME280;7210;51.502;10.722;2023-01-25T00:45:11;101689.34;;;1.25;100.00
14253;BME280;7210;51.502;10.722;2023-01-25T00:47:38;101683.94;;;1.28;100.00
14253;BME280;7210;51.502;10.722;2023-01-25T00:50:08;101655.94;;;1.08;100.00
14253;BME280;7210;51.502;10.722;2023-01-25T00:52:39;101683.44;;;1.34;100.00
14253;BME280;7210;51.502;10.722;2023-01-25T00:55:08;101687.00;;;1.33;100.00
14253;BME280;7210;51.502;10.722;2023-01-25T00:57:37;101683.94;;;1.28;100.00
14253;BME280;7210;51.502;10.722;2023-01-25T01:00:06;101679.53;;;1.29;100.00
14253;BME280;7210;51.502;10.722;2023-01-25T01:02:33;101680.59;;;1.26;100.00
14253;BME280;7210;51.502;10.722;2023-01-25T01:05:00;101678.13;;;1.25;100.00
14253;BME280;7210;51.502;10.722;2023-01-25T01:07:34;101687.44;;;1.27;100.00
14253;BME280;7210;51.502;10.722;2023-01-25T01:10:02;101672.06;;;1.24;100.00
14253;BME280;7210;51.502;10.722;2023-01-25T01:12:29;101684.38;;;1.22;100.00
14253;BME280;7210;51.502;10.722;2023-01-25T01:14:57;101679.97;;;1.23;100.00
14253;BME280;7210;51.502;10.722;2023-01-25T01:17:25;101694.22;;;1.30;100.00
14253;BME280;7210;51.502;10.722;2023-01-25T01:19:52;101688.06;;;1.31;100.00
14253;BME280;7210;51.502;10.722;2023-01-25T01:22:19;101664.00;;;1.16;100.00
14253;BME280;7210;51.502;10.722;2023-01-25T01:24:47;101687.84;;;1.34;100.00
14253;BME280;7210;51.502;10.722;2023-01-25T01:27:16;101681.91;;;1.32;100.00
14253;BME280;7210;51.502;10.722;2023-01-25T01:29:43;101680.13;;;1.32;100.00
14253;BME280;7210;51.502;10.722;2023-01-25T01:32:12;101674.91;;;1.32;100.00
14253;BME280;7210;51.502;10.722;2023-01-25T01:34:39;101675.50;;;1.36;100.00
14253;BME280;7210;51.502;10.722;2023-01-25T01:37:07;101678.38;;;1.33;100.00
14253;BME280;7210;51.502;10.722;2023-01-25T01:39:34;101677.75;;;1.29;100.00
14253;BME280;7210;51.502;10.722;2023-01-25T01:42:01;101682.25;;;1.27;100.00
14253;BME280;7210;51.502;10.722;2023-01-25T01:44:49;101675.97;;;1.30;100.00
14253;BME280;7210;51.502;10.722;2023-01-25T01:47:25;101675.16;;;1.29;100.00
14253;BME280;7210;51.502;10.722;2023-01-25T01:50:17;101676.56;;;1.33;100.00
14253;BME280;7210;51.502;10.722;2023-01-25T01:52:58;101668.75;;;1.33;100.00
14253;BME280;7210;51.502;10.722;2023-01-25T01:55:25;101671.81;;;1.27;100.00
14253;BME280;7210;51.502;10.722;2023-01-25T01:57:56;101655.25;;;1.17;100.00
14253;BME280;7210;51.502;10.722;2023-01-25T02:00:30;101663.31;;;1.25;100.00
14253;BME280;7210;51.502;10.722;2023-01-25T02:03:01;101658.34;;;1.22;100.00
14253;BME280;7210;51.502;10.722;2023-01-25T02:05:39;101654.78;;;1.23;100.00
14253;BME280;7210;51.502;10.722;2023-01-25T02:08:14;101648.13;;;1.19;100.00
14253;BME280;7210;51.502;10.722;2023-01-25T02:10:43;101655.59;;;1.24;100.00
14253;BME280;7210;51.502;10.722;2023-01-25T02:13:11;101647.66;;;1.25;100.00
14253;BME280;7210;51.502;10.722;2023-01-25T02:15:43;101650.78;;;1.30;100.00
14253;BME280;7210;51.502;10.722;2023-01-25T02:18:12;101637.25;;;1.25;100.00
14253;BME280;7210;51.502;10.722;2023-01-25T02:20:43;101635.59;;;1.24;100.00
14253;BME280;7210;51.502;10.722;2023-01-25T02:23:22;101639.97;;;1.24;100.00
14253;BME280;7210;51.502;10.722;2023-01-25T02:25:55;101645.78;;;1.27;100.00
14253;BME280;7210;51.502;10.722;2023-01-25T02:28:33;101629.09;;;1.30;100.00
14253;BME280;7210;51.502;10.722;2023-01-25T02:31:02;101624.47;;;1.22;100.00
14253;BME280;7210;51.502;10.722;2023-01-25T02:33:29;101619.13;;;1.24;100.00
14253;BME280;7210;51.502;10.722;2023-01-25T02:36:15;101621.63;;;1.25;100.00
14253;BME280;7210;51.502;10.722;2023-01-25T02:38:50;101615.47;;;1.26;100.00
14253;BME280;7210;51.502;10.722;2023-01-25T02:41:38;101607.66;;;1.26;100.00
14253;BME280;7210;51.502;10.722;2023-01-25T02:44:09;101599.38;;;1.21;100.00
14253;BME280;7210;51.502;10.722;2023-01-25T02:46:39;101589.91;;;1.20;100.00
14253;BME280;7210;51.502;10.722;2023-01-25T02:49:11;101606.59;;;1.29;100.00
14253;BME280;7210;51.502;10.722;2023-01-25T02:51:40;101597.72;;;1.20;100.00
14253;BME280;7210;51.502;10.722;2023-01-25T02:54:11;101586.34;;;1.21;100.00
14253;BME280;7210;51.502;10.722;2023-01-25T02:56:40;101587.06;;;1.23;100.00
14253;BME280;7210;51.502;10.722;2023-01-25T02:59:10;101586.00;;;1.26;100.00
14253;BME280;7210;51.502;10.722;2023-01-25T03:01:41;101577.81;;;1.30;100.00
14253;BME280;7210;51.502;10.722;2023-01-25T03:07:14;101563.72;;;1.22;100.00
14253;BME280;7210;51.502;10.722;2023-01-25T03:09:43;101563.13;;;1.18;100.00
14253;BME280;7210;51.502;10.722;2023-01-25T03:12:12;101557.69;;;1.21;100.00
14253;BME280;7210;51.502;10.722;2023-01-25T03:17:31;101554.13;;;1.11;100.00
14253;BME280;7210;51.502;10.722;2023-01-25T03:19:59;101551.78;;;1.08;100.00
14253;BME280;7210;51.502;10.722;2023-01-25T03:22:30;101556.72;;;1.11;100.00
14253;BME280;7210;51.502;10.722;2023-01-25T03:24:57;101560.06;;;1.13;100.00
14253;BME280;7210;51.502;10.722;2023-01-25T03:27:37;101559.22;;;1.13;100.00
14253;BME280;7210;51.502;10.722;2023-01-25T03:30:10;101555.06;;;1.10;100.00
14253;BME280;7210;51.502;10.722;2023-01-25T03:32:38;101562.31;;;1.18;100.00
14253;BME280;7210;51.502;10.722;2023-01-25T03:35:10;101559.22;;;1.13;100.00
14253;BME280;7210;51.502;10.722;2023-01-25T03:37:38;101560.06;;;1.13;100.00
14253;BME280;7210;51.502;10.722;2023-01-25T03:40:06;101571.69;;;1.20;100.00
14253;BME280;7210;51.502;10.722;2023-01-25T03:42:36;101565.03;;;1.16;100.00
14253;BME280;7210;51.502;10.722;2023-01-25T03:45:05;101559.34;;;1.11;100.00
14253;BME280;7210;51.502;10.722;2023-01-25T03:47:32;101555.78;;;1.01;100.00
14253;BME280;7210;51.502;10.722;2023-01-25T03:50:06;101546.69;;;0.96;100.00
14253;BME280;7210;51.502;10.722;2023-01-25T03:52:34;101550.44;;;0.92;100.00
14253;BME280;7210;51.502;10.722;2023-01-25T03:55:07;101542.53;;;0.93;100.00
14253;BME280;7210;51.502;10.722;2023-01-25T03:57:42;101544.53;;;0.90;100.00
14253;BME280;7210;51.502;10.722;2023-01-25T04:00:17;101534.47;;;0.85;100.00
14253;BME280;7210;51.502;10.722;2023-01-25T04:02:53;101541.34;;;0.86;100.00
14253;BME280;7210;51.502;10.722;2023-01-25T04:05:22;101542.53;;;0.93;100.00
14253;BME280;7210;51.502;10.722;2023-01-25T04:07:50;101546.78;;;0.94;100.00
14253;BME280;7210;51.502;10.722;2023-01-25T04:10:34;101545.03;;;0.95;100.00
14253;BME280;7210;51.502;10.722;2023-01-25T04:13:04;101552.94;;;0.93;100.00
14253;BME280;7210;51.502;10.722;2023-01-25T04:15:35;101548.59;;;0.94;100.00
14253;BME280;7210;51.502;10.722;2023-01-25T04:18:09;101541.81;;;0.91;100.00
14253;BME280;7210;51.502;10.722;2023-01-25T04:20:36;101538.63;;;0.88;100.00
14253;BME280;7210;51.502;10.722;2023-01-25T04:23:04;101532.81;;;0.84;100.00
14253;BME280;7210;51.502;10.722;2023-01-25T04:25:35;101520.16;;;0.80;100.00
14253;BME280;7210;51.502;10.722;2023-01-25T04:28:07;101528.09;;;0.78;100.00
14253;BME280;7210;51.502;10.722;2023-01-25T04:30:34;101522.88;;;0.78;100.00
14253;BME280;7210;51.502;10.722;2023-01-25T04:33:04;101526.19;;;0.80;100.00
14253;BME280;7210;51.502;10.722;2023-01-25T04:35:33;101521.72;;;0.82;100.00
14253;BME280;7210;51.502;10.722;2023-01-25T04:38:11;101515.91;;;0.79;100.00
14253;BME280;7210;51.502;10.722;2023-01-25T04:40:42;101507.97;;;0.69;100.00
14253;BME280;7210;51.502;10.722;2023-01-25T04:43:24;101512.72;;;0.75;100.00
14253;BME280;7210;51.502;10.722;2023-01-25T04:45:56;101511.06;;;0.74;100.00
14253;BME280;7210;51.502;10.722;2023-01-25T04:48:29;101508.44;;;0.74;100.00
14253;BME280;7210;51.502;10.722;2023-01-25T04:51:00;101504.66;;;0.78;100.00
14253;BME280;7210;51.502;10.722;2023-01-25T04:53:33;101513.66;;;0.85;100.00
14253;BME280;7210;51.502;10.722;2023-01-25T04:56:02;101498.38;;;0.81;100.00
14253;BME280;7210;51.502;10.722;2023-01-25T04:58:35;101494.03;;;0.81;100.00
14253;BME280;7210;51.502;10.722;2023-01-25T05:01:03;101507.28;;;0.89;100.00
14253;BME280;7210;51.502;10.722;2023-01-25T05:03:31;101511.28;;;0.93;100.00
14253;BME280;7210;51.502;10.722;2023-01-25T05:05:59;101512.34;;;0.91;100.00
14253;BME280;7210;51.502;10.722;2023-01-25T05:08:27;101507.28;;;0.89;100.00
14253;BME280;7210;51.502;10.722;2023-01-25T05:10:59;101506.34;;;0.90;100.00
14253;BME280;7210;51.502;10.722;2023-01-25T05:13:29;101503.59;;;0.92;100.00
14253;BME280;7210;51.502;10.722;2023-01-25T05:16:12;101500.41;;;0.99;100.00
14253;BME280;7210;51.502;10.722;2023-01-25T05:18:40;101484.91;;;0.98;100.00
14253;BME280;7210;51.502;10.722;2023-01-25T05:21:10;101489.16;;;0.99;100.00
14253;BME280;7210;51.502;10.722;2023-01-25T05:24:08;101483.13;;;0.98;100.00
14253;BME280;7210;51.502;10.722;2023-01-25T05:26:35;101485.22;;;1.04;100.00
14253;BME280;7210;51.502;10.722;2023-01-25T05:29:27;101482.88;;;1.01;100.00
14253;BME280;7210;51.502;10.722;2023-01-25T05:32:08;101477.19;;;0.96;100.00
14253;BME280;7210;51.502;10.722;2023-01-25T05:34:38;101466.56;;;0.88;100.00
14253;BME280;7210;51.502;10.722;2023-01-25T05:37:08;101461.59;;;0.85;100.00
14253;BME280;7210;51.502;10.722;2023-01-25T05:39:39;101452.72;;;0.77;100.00
14253;BME280;7210;51.502;10.722;2023-01-25T05:42:11;101459.00;;;0.74;100.00
14253;BME280;7210;51.502;10.722;2023-01-25T05:44:38;101459.47;;;0.68;100.00
14253;BME280;7210;51.502;10.722;2023-01-25T05:47:11;101456.75;;;0.70;100.00
14253;BME280;7210;51.502;10.722;2023-01-25T05:49:39;101458.53;;;0.69;100.00
14253;BME280;7210;51.502;10.722;2023-01-25T05:52:15;101454.16;;;0.70;100.00
14253;BME280;7210;51.502;10.722;2023-01-25T05:54:43;101459.00;;;0.74;100.00
14253;BME280;7210;51.502;10.722;2023-01-25T05:57:13;101457.09;;;0.76;100.00
14253;BME280;7210;51.502;10.722;2023-01-25T05:59:41;101466.56;;;0.77;100.00
14253;BME280;7210;51.502;10.722;2023-01-25T06:02:12;101461.09;;;0.80;100.00
14253;BME280;7210;51.502;10.722;2023-01-25T06:04:41;101453.53;;;0.77;100.00
14253;BME280;7210;51.502;10.722;2023-01-25T06:07:10;101450.25;;;0.75;100.00
14253;BME280;7210;51.502;10.722;2023-01-25T06:09:38;101450.72;;;0.69;100.00
14253;BME280;7210;51.502;10.722;2023-01-25T06:12:06;101453.31;;;0.69;100.00
14253;BME280;7210;51.502;10.722;2023-01-25T06:14:35;101448.47;;;0.65;100.00
14253;BME280;7210;51.502;10.722;2023-01-25T06:17:04;101452.81;;;0.64;100.00
14253;BME280;7210;51.502;10.722;2023-01-25T06:19:52;101449.41;;;0.64;100.00
14253;BME280;7210;51.502;10.722;2023-01-25T06:22:42;101454.00;;;0.71;100.00
14253;BME280;7210;51.502;10.722;2023-01-25T06:25:09;101452.81;;;0.64;100.00
14253;BME280;7210;51.502;10.722;2023-01-25T06:27:36;101455.78;;;0.60;100.00
14253;BME280;7210;51.502;10.722;2023-01-25T06:30:05;101458.28;;;0.61;100.00
14253;BME280;7210;51.502;10.722;2023-01-25T06:32:33;101448.13;;;0.58;100.00
14253;BME280;7210;51.502;10.722;2023-01-25T06:35:02;101457.31;;;0.73;100.00
14253;BME280;7210;51.502;10.722;2023-01-25T06:37:30;101461.25;;;0.79;100.00
14253;BME280;7210;51.502;10.722;2023-01-25T06:39:58;101462.28;;;0.87;100.00
14253;BME280;7210;51.502;10.722;2023-01-25T06:42:25;101467.13;;;0.92;100.00
14253;BME280;7210;51.502;10.722;2023-01-25T06:44:52;101457.56;;;0.92;100.00
14253;BME280;7210;51.502;10.722;2023-01-25T06:47:19;101454.84;;;0.83;100.00
14253;BME280;7210;51.502;10.722;2023-01-25T06:49:52;101447.28;;;0.80;100.00
14253;BME280;7210;51.502;10.722;2023-01-25T06:52:21;101439.59;;;0.78;100.00
14253;BME280;7210;51.502;10.722;2023-01-25T06:54:48;101429.88;;;0.80;100.00
14253;BME280;7210;51.502;10.722;2023-01-25T06:57:15;101438.88;;;0.87;100.00
14253;BME280;7210;51.502;10.722;2023-01-25T06:59:42;101435.31;;;0.88;100.00
14253;BME280;7210;51.502;10.722;2023-01-25T07:02:14;101423.03;;;0.90;100.00
14253;BME280;7210;51.502;10.722;2023-01-25T07:04:46;101424.69;;;0.91;100.00
14253;BME280;7210;51.502;10.722;2023-01-25T07:07:14;101424.44;;;0.94;100.00
14253;BME280;7210;51.502;10.722;2023-01-25T07:09:42;101429.41;;;0.97;100.00
14253;BME280;7210;51.502;10.722;2023-01-25T07:12:09;101425.13;;;0.96;100.00
14253;BME280;7210;51.502;10.722;2023-01-25T07:14:37;101397.13;;;0.78;100.00
14253;BME280;7210;51.502;10.722;2023-01-25T07:17:04;101411.19;;;0.86;100.00
14253;BME280;7210;51.502;10.722;2023-01-25T07:19:31;101402.78;;;0.83;100.00
14253;BME280;7210;51.502;10.722;2023-01-25T07:21:58;101396.28;;;0.77;100.00
14253;BME280;7210;51.502;10.722;2023-01-25T07:24:29;101398.53;;;0.82;100.00
14253;BME280;7210;51.502;10.722;2023-01-25T07:26:57;101405.75;;;0.89;100.00
14253;BME280;7210;51.502;10.722;2023-01-25T07:29:24;101398.66;;;0.91;100.00
14253;BME280;7210;51.502;10.722;2023-01-25T07:31:52;101388.22;;;0.91;100.00
14253;BME280;7210;51.502;10.722;2023-01-25T07:34:28;101386.31;;;0.93;100.00
14253;BME280;7210;51.502;10.722;2023-01-25T07:36:56;101382.53;;;0.97;100.00
14253;BME280;7210;51.502;10.722;2023-01-25T07:39:23;101385.00;;;0.99;100.00
14253;BME280;7210;51.502;10.722;2023-01-25T07:41:50;101375.22;;;0.91;100.00
14253;BME280;7210;51.502;10.722;2023-01-25T07:44:24;101365.97;;;0.87;100.00
14253;BME280;7210;51.502;10.722;2023-01-25T07:46:58;101353.91;;;0.86;100.00
14253;BME280;7210;51.502;10.722;2023-01-25T07:49:26;101367.41;;;0.91;100.00
14253;BME280;7210;51.502;10.722;2023-01-25T07:51:53;101356.28;;;0.78;100.00
14253;BME280;7210;51.502;10.722;2023-01-25T07:54:20;101354.97;;;0.84;100.00
14253;BME280;7210;51.502;10.722;2023-01-25T07:56:47;101353.22;;;0.84;100.00
14253;BME280;7210;51.502;10.722;2023-01-25T07:59:15;101345.75;;;0.91;100.00
14253;BME280;7210;51.502;10.722;2023-01-25T08:01:43;101348.22;;;0.92;100.00
14253;BME280;7210;51.502;10.722;2023-01-25T08:04:10;101335.00;;;0.84;100.00
14253;BME280;7210;51.502;10.722;2023-01-25T08:06:44;101352.47;;;0.93;100.00
14253;BME280;7210;51.502;10.722;2023-01-25T08:09:15;101346.31;;;0.94;100.00
14253;BME280;7210;51.502;10.722;2023-01-25T08:11:47;101342.09;;;0.82;100.00
14253;BME280;7210;51.502;10.722;2023-01-25T08:14:16;101339.50;;;0.71;100.00
14253;BME280;7210;51.502;10.722;2023-01-25T08:16:45;101328.78;;;0.65;100.00
14253;BME280;7210;51.502;10.722;2023-01-25T08:19:12;101336.47;;;0.66;100.00
14253;BME280;7210;51.502;10.722;2023-01-25T08:21:40;101334.78;;;0.65;100.00
14253;BME280;7210;51.502;10.722;2023-01-25T08:24:08;101344.25;;;0.77;100.00
14253;BME280;7210;51.502;10.722;2023-01-25T08:26:36;101340.47;;;0.81;100.00
14253;BME280;7210;51.502;10.722;2023-01-25T08:29:04;101335.47;;;0.78;100.00
14253;BME280;7210;51.502;10.722;2023-01-25T08:31:33;101331.47;;;0.74;100.00
14253;BME280;7210;51.502;10.722;2023-01-25T08:34:03;101333.50;;;0.71;100.00
14253;BME280;7210;51.502;10.722;2023-01-25T08:36:30;101326.06;;;0.66;100.00
14253;BME280;7210;51.502;10.722;2023-01-25T08:39:02;101322.50;;;0.67;100.00
14253;BME280;7210;51.502;10.722;2023-01-25T08:41:31;101324.16;;;0.68;100.00
14253;BME280;7210;51.502;10.722;2023-01-25T08:43:59;101322.13;;;0.72;100.00
14253;BME280;7210;51.502;10.722;2023-01-25T08:46:29;101325.31;;;0.75;100.00
14253;BME280;7210;51.502;10.722;2023-01-25T08:48:59;101328.38;;;0.80;100.00
14253;BME280;7210;51.502;10.722;2023-01-25T08:51:29;101330.16;;;0.80;100.00
14253;BME280;7210;51.502;10.722;2023-01-25T08:54:01;101324.59;;;0.84;100.00
14253;BME280;7210;51.502;10.722;2023-01-25T08:56:28;101322.47;;;0.89;100.00
14253;BME280;7210;51.502;10.722;2023-01-25T08:58:56;101328.34;;;0.91;100.00
14253;BME280;7210;51.502;10.722;2023-01-25T09:01:23;101327.88;;;0.97;100.00
14253;BME280;7210;51.502;10.722;2023-01-25T09:03:50;101318.38;;;0.96;100.00
14253;BME280;7210;51.502;10.722;2023-01-25T09:06:30;101309.38;;;1.00;100.00
14253;BME280;7210;51.502;10.722;2023-01-25T09:08:58;101316.91;;;1.14;100.00
14253;BME280;7210;51.502;10.722;2023-01-25T09:11:26;101315.00;;;1.16;100.00
14253;BME280;7210;51.502;10.722;2023-01-25T09:13:58;101307.19;;;1.16;100.00
14253;BME280;7210;51.502;10.722;2023-01-25T09:16:26;101296.09;;;1.14;100.00
14253;BME280;7210;51.502;10.722;2023-01-25T09:18:57;101291.09;;;1.11;100.00
14253;BME280;7210;51.502;10.722;2023-01-25T09:21:30;101293.66;;;1.02;100.00
14253;BME280;7210;51.502;10.722;2023-01-25T09:23:58;101260.31;;;0.96;100.00
14253;BME280;7210;51.502;10.722;2023-01-25T09:26:28;101282.03;;;1.06;100.00
14253;BME280;7210;51.502;10.722;2023-01-25T09:28:56;101271.53;;;0.96;100.00
14253;BME280;7210;51.502;10.722;2023-01-25T09:31:29;101281.44;;;1.02;100.00
14253;BME280;7210;51.502;10.722;2023-01-25T09:34:14;101269.28;;;1.03;100.00
14253;BME280;7210;51.502;10.722;2023-01-25T09:36:43;101276.94;;;1.04;100.00
14253;BME280;7210;51.502;10.722;2023-01-25T09:39:11;101268.81;;;0.98;100.00
14253;BME280;7210;51.502;10.722;2023-01-25T09:42:05;101259.22;;;0.98;100.00
14253;BME280;7210;51.502;10.722;2023-01-25T09:45:04;101251.44;;;0.87;100.00
14253;BME280;7210;51.502;10.722;2023-01-25T09:47:44;101250.69;;;0.96;100.00
14253;BME280;7210;51.502;10.722;2023-01-25T09:50:33;101237.75;;;0.85;100.00
14253;BME280;7210;51.502;10.722;2023-01-25T09:53:31;101242.44;;;0.91;100.00
14253;BME280;7210;51.502;10.722;2023-01-25T09:56:08;101240.53;;;0.93;100.00
14253;BME280;7210;51.502;10.722;2023-01-25T09:58:45;101229.88;;;0.96;100.00
14253;BME280;7210;51.502;10.722;2023-01-25T10:01:27;101234.34;;;1.05;100.00
14253;BME280;7210;51.502;10.722;2023-01-25T10:04:00;101249.63;;;1.19;100.00
14253;BME280;7210;51.502;10.722;2023-01-25T10:06:38;101236.03;;;1.16;100.00
14253;BME280;7210;51.502;10.722;2023-01-25T10:09:29;101236.88;;;1.16;100.00
14253;BME280;7210;51.502;10.722;2023-01-25T10:12:15;101227.91;;;1.09;100.00
14253;BME280;7210;51.502;10.722;2023-01-25T10:14:47;101219.88;;;1.12;100.00
14253;BME280;7210;51.502;10.722;2023-01-25T10:17:26;101204.41;;;1.00;100.00
14253;BME280;7210;51.502;10.722;2023-01-25T10:20:18;101194.53;;;0.94;100.00
14253;BME280;7210;51.502;10.722;2023-01-25T10:23:08;101200.44;;;0.96;100.00
14253;BME280;7210;51.502;10.722;2023-01-25T10:25:44;101187.97;;;0.99;100.00
14253;BME280;7210;51.502;10.722;2023-01-25T10:28:26;101182.78;;;0.99;100.00
14253;BME280;7210;51.502;10.722;2023-01-25T10:31:03;101180.06;;;1.01;100.00
14253;BME280;7210;51.502;10.722;2023-01-25T10:33:38;101166.31;;;0.99;100.00
14253;BME280;7210;51.502;10.722;2023-01-25T10:36:13;101164.56;;;0.99;100.00
14253;BME280;7210;51.502;10.722;2023-01-25T10:38:43;101155.91;;;0.99;100.00
14253;BME280;7210;51.502;10.722;2023-01-25T10:41:19;101138.75;;;0.96;100.00
14253;BME280;7210;51.502;10.722;2023-01-25T10:43:52;101130.00;;;0.97;100.00
14253;BME280;7210;51.502;10.722;2023-01-25T10:47:22;101135.66;;;1.02;100.00
14253;BME280;7210;51.502;10.722;2023-01-25T10:49:53;101132.22;;;1.02;100.00
14253;BME280;7210;51.502;10.722;2023-01-25T10:52:23;101125.22;;;1.02;100.00
14253;BME280;7210;51.502;10.722;2023-01-25T10:55:13;101118.09;;;1.04;100.00
14253;BME280;7210;51.502;10.722;2023-01-25T10:57:46;101103.06;;;1.08;100.00
14253;BME280;7210;51.502;10.722;2023-01-25T11:00:24;101105.81;;;1.06;100.00
14253;BME280;7210;51.502;10.722;2023-01-25T11:02:55;101097.28;;;1.04;100.00
14253;BME280;7210;51.502;10.722;2023-01-25T11:05:33;101099.47;;;0.99;100.00
14253;BME280;7210;51.502;10.722;2023-01-25T11:08:22;101097.28;;;1.04;100.00
14253;BME280;7210;51.502;10.722;2023-01-25T11:10:51;101093.03;;;1.03;100.00
14253;BME280;7210;51.502;10.722;2023-01-25T11:13:26;101086.88;;;1.04;100.00
14253;BME280;7210;51.502;10.722;2023-01-25T11:16:16;101082.78;;;1.11;100.00
14253;BME280;7210;51.502;10.722;2023-01-25T11:18:51;101084.47;;;1.12;100.00
14253;BME280;7210;51.502;10.722;2023-01-25T11:21:21;101084.75;;;1.19;100.00
14253;BME280;7210;51.502;10.722;2023-01-25T11:24:16;101079.56;;;1.19;100.00
14253;BME280;7210;51.502;10.722;2023-01-25T11:26:44;101066.25;;;1.12;100.00
14253;BME280;7210;51.502;10.722;2023-01-25T11:29:18;101065.28;;;1.13;100.00
14253;BME280;7210;51.502;10.722;2023-01-25T11:31:48;101049.66;;;1.13;100.00
14253;BME280;7210;51.502;10.722;2023-01-25T11:34:19;101052.16;;;1.24;100.00
14253;BME280;7210;51.502;10.722;2023-01-25T11:37:19;101057.09;;;1.27;100.00
14253;BME280;7210;51.502;10.722;2023-01-25T11:40:00;101047.56;;;1.37;100.00
14253;BME280;7210;51.502;10.722;2023-01-25T11:42:38;101037.53;;;1.33;100.00
14253;BME280;7210;51.502;10.722;2023-01-25T11:45:55;101009.13;;;1.20;100.00
14253;BME280;7210;51.502;10.722;2023-01-25T11:48:51;100993.75;;;1.17;100.00
14253;BME280;7210;51.502;10.722;2023-01-25T11:51:42;100983.28;;;1.08;100.00
14253;BME280;7210;51.502;10.722;2023-01-25T11:54:40;100967.66;;;0.98;100.00
14253;BME280;7210;51.502;10.722;2023-01-25T11:57:44;100977.97;;;1.09;100.00
14253;BME280;7210;51.502;10.722;2023-01-25T12:00:34;100978.41;;;1.14;100.00
14253;BME280;7210;51.502;10.722;2023-01-25T12:03:50;100963.56;;;1.05;100.00
14253;BME280;7210;51.502;10.722;2023-01-25T12:06:36;100959.69;;;0.90;100.00
14253;BME280;7210;51.502;10.722;2023-01-25T12:09:37;100953.88;;;0.77;100.00
14253;BME280;7210;51.502;10.722;2023-01-25T12:12:18;100950.25;;;0.69;100.00
14253;BME280;7210;51.502;10.722;2023-01-25T12:15:16;100947.81;;;0.67;100.00
14253;BME280;7210;51.502;10.722;2023-01-25T12:18:25;100954.38;;;0.71;100.00
14253;BME280;7210;51.502;10.722;2023-01-25T12:21:05;100957.16;;;0.79;100.00
14253;BME280;7210;51.502;10.722;2023-01-25T12:23:53;100953.59;;;0.80;100.00
14253;BME280;7210;51.502;10.722;2023-01-25T12:26:27;100947.25;;;0.73;100.00
14253;BME280;7210;51.502;10.722;2023-01-25T12:29:04;100942.50;;;0.78;100.00
14253;BME280;7210;51.502;10.722;2023-01-25T12:31:41;100951.88;;;0.90;100.00
14253;BME280;7210;51.502;10.722;2023-01-25T12:34:17;100939.97;;;0.97;100.00
14253;BME280;7210;51.502;10.722;2023-01-25T12:36:48;100951.78;;;1.11;100.00
14253;BME280;7210;51.502;10.722;2023-01-25T12:39:21;100951.56;;;1.23;100.00
14253;BME280;7210;51.502;10.722;2023-01-25T12:41:54;100949.38;;;1.28;100.00
14253;BME280;7210;51.502;10.722;2023-01-25T12:44:27;100949.25;;;1.39;100.00
14253;BME280;7210;51.502;10.722;2023-01-25T12:47:01;100943.91;;;1.41;100.00
14253;BME280;7210;51.502;10.722;2023-01-25T12:49:39;100915.22;;;1.22;100.00
14253;BME280;7210;51.502;10.722;2023-01-25T12:52:22;100918.66;;;1.22;100.00
14253;BME280;7210;51.502;10.722;2023-01-25T12:54:52;100904.38;;;1.07;100.00
14253;BME280;7210;51.502;10.722;2023-01-25T12:57:25;100886.25;;;0.96;100.00
14253;BME280;7210;51.502;10.722;2023-01-25T13:00:04;100879.94;;;0.89;100.00
14253;BME280;7210;51.502;10.722;2023-01-25T13:03:09;100887.63;;;1.00;100.00
14253;BME280;7210;51.502;10.722;2023-01-25T13:05:50;100886.16;;;1.07;100.00
14253;BME280;7210;51.502;10.722;2023-01-25T13:08:33;100886.56;;;1.03;100.00
14253;BME280;7210;51.502;10.722;2023-01-25T13:11:13;100876.78;;;0.95;100.00
14253;BME280;7210;51.502;10.722;2023-01-25T13:13:42;100876.09;;;0.93;100.00
14253;BME280;7210;51.502;10.722;2023-01-25T13:16:39;100873.63;;;0.92;100.00
14253;BME280;7210;51.502;10.722;2023-01-25T13:19:20;100865.41;;;0.96;100.00
14253;BME280;7210;51.502;10.722;2023-01-25T13:21:50;100857.22;;;0.91;100.00
14253;BME280;7210;51.502;10.722;2023-01-25T13:24:24;100847.75;;;0.90;100.00
14253;BME280;7210;51.502;10.722;2023-01-25T13:27:04;100846.25;;;0.88;100.00
14253;BME280;7210;51.502;10.722;2023-01-25T13:29:58;100838.16;;;0.81;100.00
14253;BME280;7210;51.502;10.722;2023-01-25T13:33:47;100844.03;;;0.83;100.00